createdAt,value
2023-04-01T00:04:21.642Z,27.38
2023-04-01T00:09:23.098Z,26.13
2023-04-01T00:14:24.492Z,22.70
2023-04-01T00:19:26.036Z,21.48
2023-04-01T00:24:27.441Z,18.63
2023-04-01T00:29:30.237Z,18.40
2023-04-01T00:34:31.634Z,17.25
2023-04-01T00:39:33.745Z,14.85
2023-04-01T00:44:38.205Z,13.15
2023-04-01T00:49:41.416Z,9.75
2023-04-01T00:54:45.518Z,9.70
2023-04-01T00:59:48.531Z,9.98
2023-04-01T01:04:49.938Z,10.60
2023-04-01T01:10:04.543Z,9.48
2023-04-01T01:15:09.329Z,8.23
2023-04-01T01:20:23.077Z,6.47
2023-04-01T01:25:36.939Z,6.20
2023-04-01T01:30:44.020Z,5.93
2023-04-01T01:35:52.615Z,6.25
2023-04-01T01:40:55.388Z,5.55
2023-04-01T01:45:58.791Z,6.00
2023-04-01T01:51:00.776Z,6.28
2023-04-01T01:56:02.503Z,5.78
2023-04-01T02:01:06.131Z,5.53
2023-04-01T02:06:08.828Z,4.90
2023-04-01T02:11:11.599Z,5.68
2023-04-01T02:16:15.512Z,4.95
2023-04-01T02:21:19.287Z,4.90
2023-04-01T02:26:21.630Z,3.93
2023-04-01T02:31:23.923Z,4.70
2023-04-01T02:36:25.555Z,3.47
2023-04-01T02:41:27.130Z,2.95
2023-04-01T02:46:28.492Z,2.63
2023-04-01T02:51:31.093Z,3.05
2023-04-01T02:56:33.583Z,2.20
2023-04-01T03:01:35.090Z,2.25
2023-04-01T03:06:36.616Z,2.33
2023-04-01T03:11:38.168Z,1.90
2023-04-01T03:16:39.563Z,1.30
2023-04-01T03:21:41.063Z,0.80
2023-04-01T03:26:42.516Z,0.90
2023-04-01T03:31:44.306Z,0.77
2023-04-01T03:36:45.833Z,0.82
2023-04-01T03:41:47.271Z,0.50
2023-04-01T03:46:48.658Z,0.70
2023-04-01T03:51:50.145Z,1.58
2023-04-01T03:56:51.645Z,1.23
2023-04-01T04:01:53.065Z,1.08
2023-04-01T04:06:54.682Z,0.93
2023-04-01T04:11:56.174Z,1.23
2023-04-01T04:16:57.608Z,0.70
2023-04-01T04:22:01.642Z,1.03
2023-04-01T04:27:03.674Z,0.90
2023-04-01T04:32:05.174Z,1.30
2023-04-01T04:37:06.676Z,1.10
2023-04-01T04:42:08.100Z,1.80
2023-04-01T04:47:09.502Z,1.50
2023-04-01T04:52:11.370Z,1.73
2023-04-01T04:57:12.809Z,1.37
2023-04-01T05:02:14.280Z,2.00
2023-04-01T05:07:16.023Z,1.40
2023-04-01T05:12:17.489Z,1.93
2023-04-01T05:17:18.959Z,1.40
2023-04-01T05:22:21.027Z,1.60
2023-04-01T05:27:22.603Z,1.40
2023-04-01T05:32:24.251Z,1.73
2023-04-01T05:37:26.043Z,1.50
2023-04-01T05:42:27.440Z,1.50
2023-04-01T05:47:28.851Z,1.20
2023-04-01T05:52:30.508Z,1.07
2023-04-01T05:57:32.093Z,1.00
2023-04-01T06:02:33.708Z,1.00
2023-04-01T06:07:35.265Z,1.13
2023-04-01T06:12:55.422Z,1.30
2023-04-01T06:18:03.541Z,1.23
2023-04-01T06:23:07.949Z,0.90
2023-04-01T06:28:18.476Z,0.80
2023-04-01T06:33:52.486Z,1.57
2023-04-01T06:38:53.857Z,1.30
2023-04-01T06:44:01.235Z,1.03
2023-04-01T06:49:14.874Z,1.20
2023-04-01T06:54:19.723Z,1.05
2023-04-01T06:59:23.271Z,1.23
2023-04-01T07:04:28.546Z,2.20
2023-04-01T07:09:36.556Z,1.20
2023-04-01T07:14:39.323Z,1.27
2023-04-01T07:19:43.839Z,1.80
2023-04-01T07:29:46.627Z,2.17
2023-04-01T07:35:02.849Z,1.33
2023-04-01T07:40:16.308Z,1.33
2023-04-01T07:45:27.177Z,1.47
2023-04-01T07:50:29.871Z,1.13
2023-04-01T07:55:54.351Z,1.37
2023-04-01T08:01:14.502Z,1.77
2023-04-01T08:06:27.938Z,1.70
2023-04-01T08:11:38.656Z,1.80
2023-04-01T08:16:54.516Z,1.67
2023-04-01T08:21:58.824Z,2.27
2023-04-01T08:27:02.510Z,1.92
2023-04-01T08:32:26.636Z,1.80
2023-04-01T08:42:32.907Z,2.70
2023-04-01T08:47:47.774Z,2.60
2023-04-01T08:52:55.403Z,2.13
2023-04-01T08:58:05.702Z,2.13
2023-04-01T09:03:25.834Z,2.33
2023-04-01T09:08:46.335Z,3.43
2023-04-01T09:14:06.297Z,3.03
2023-04-01T09:19:26.585Z,3.50
2023-04-01T09:24:33.908Z,3.33
2023-04-01T09:29:41.392Z,5.93
2023-04-01T09:34:54.366Z,5.27
2023-04-01T09:40:14.486Z,5.80
2023-04-01T09:45:19.257Z,6.43
2023-04-01T09:50:39.352Z,5.20
2023-04-01T09:55:40.810Z,4.37
2023-04-01T10:01:01.020Z,4.50
2023-04-01T10:06:02.478Z,4.43
2023-04-01T10:11:30.022Z,5.30
2023-04-01T10:16:34.297Z,4.70
2023-04-01T10:21:51.068Z,4.70
2023-04-01T10:27:05.273Z,5.20
2023-04-01T10:32:25.719Z,5.78
2023-04-01T10:37:40.543Z,6.30
2023-04-01T10:42:41.975Z,5.50
2023-04-01T10:47:58.654Z,5.07
2023-04-01T10:53:04.303Z,7.33
2023-04-01T10:58:30.792Z,6.20
2023-04-01T11:03:51.317Z,7.10
2023-04-01T11:09:05.655Z,5.40
2023-04-01T11:14:12.872Z,5.15
2023-04-01T11:19:14.271Z,4.57
2023-04-01T11:24:41.749Z,5.10
2023-04-01T11:29:59.308Z,5.40
2023-04-01T11:35:25.058Z,5.10
2023-04-01T11:40:32.540Z,4.53
2023-04-01T11:45:39.646Z,5.87
2023-04-01T11:50:59.770Z,4.53
2023-04-01T11:56:07.400Z,5.03
2023-04-01T12:01:20.835Z,5.70
2023-04-01T12:06:22.192Z,4.77
2023-04-01T12:11:29.300Z,4.77
2023-04-01T12:16:47.297Z,4.10
2023-04-01T12:22:07.779Z,4.17
2023-04-01T12:27:15.735Z,4.37
2023-04-01T12:32:36.157Z,4.10
2023-04-01T12:37:46.021Z,5.03
2023-04-01T12:42:50.451Z,4.23
2023-04-01T12:48:12.376Z,3.65
2023-04-01T12:53:35.028Z,3.63
2023-04-01T12:59:03.376Z,4.00
2023-04-01T13:04:08.069Z,3.20
2023-04-01T13:09:09.937Z,3.73
2023-04-01T13:14:18.439Z,3.57
2023-04-01T13:19:36.498Z,3.67
2023-04-01T13:24:37.863Z,2.70
2023-04-01T13:29:46.387Z,3.40
2023-04-01T13:34:53.781Z,3.23
2023-04-01T13:40:14.094Z,4.10
2023-04-01T13:45:20.897Z,2.30
2023-04-01T13:50:24.879Z,3.30
2023-04-01T13:55:36.725Z,2.83
2023-04-01T14:00:38.164Z,3.60
2023-04-01T14:05:51.369Z,3.23
2023-04-01T14:11:08.126Z,3.63
2023-04-01T14:16:20.537Z,2.77
2023-04-01T14:21:37.204Z,2.50
2023-04-01T14:26:53.899Z,2.63
2023-04-01T14:31:56.631Z,3.23
2023-04-01T14:37:08.405Z,2.85
2023-04-01T14:42:22.648Z,2.63
2023-04-01T14:52:29.793Z,2.43
2023-04-01T14:57:33.172Z,2.97
2023-04-01T15:02:53.413Z,3.50
2023-04-01T15:07:57.895Z,3.30
2023-04-01T15:12:59.380Z,3.47
2023-04-01T15:18:19.744Z,2.83
2023-04-01T15:23:32.632Z,2.40
2023-04-01T15:28:40.449Z,3.70
2023-04-01T15:34:20.410Z,2.93
2023-04-01T15:39:45.374Z,3.43
2023-04-01T15:44:52.956Z,2.17
2023-04-01T15:50:12.846Z,2.90
2023-04-01T15:55:20.350Z,2.73
2023-04-01T16:00:24.921Z,2.67
2023-04-01T16:05:45.729Z,2.47
2023-04-01T16:10:59.901Z,3.97
2023-04-01T16:16:04.377Z,1.83
2023-04-01T16:21:28.810Z,2.10
2023-04-01T16:26:37.912Z,3.00
2023-04-01T16:31:58.345Z,2.40
2023-04-01T16:37:13.977Z,2.23
2023-04-01T16:42:27.767Z,2.13
2023-04-01T16:47:46.227Z,1.95
2023-04-01T16:52:47.618Z,1.90
2023-04-01T16:57:53.637Z,2.23
2023-04-01T17:03:21.102Z,1.77
2023-04-01T17:08:45.606Z,1.53
2023-04-01T17:13:49.702Z,1.90
2023-04-01T17:19:10.606Z,1.77
2023-04-01T17:24:24.833Z,2.97
2023-04-01T17:29:35.609Z,2.15
2023-04-01T17:34:37.105Z,1.80
2023-04-01T17:39:41.653Z,1.77
2023-04-01T17:49:51.135Z,1.43
2023-04-01T17:55:11.384Z,1.60
2023-04-01T18:00:12.777Z,2.70
2023-04-01T18:05:14.173Z,1.67
2023-04-01T18:10:35.865Z,5.40
2023-04-01T18:15:55.744Z,2.10
2023-04-01T18:21:05.824Z,2.00
2023-04-01T18:26:22.537Z,2.20
2023-04-01T18:31:33.338Z,2.30
2023-04-01T18:36:53.116Z,2.20
2023-04-01T18:42:09.610Z,1.53
2023-04-01T18:47:37.124Z,1.80
2023-04-01T18:52:44.289Z,2.03
2023-04-01T18:57:57.459Z,1.93
2023-04-01T19:03:08.099Z,2.13
2023-04-01T19:08:20.978Z,4.70
2023-04-01T19:13:37.830Z,1.80
2023-04-01T19:18:39.293Z,2.63
2023-04-01T19:23:53.137Z,1.50
2023-04-01T19:29:04.131Z,1.60
2023-04-01T19:34:24.477Z,1.87
2023-04-01T19:39:55.431Z,2.00
2023-04-01T19:44:56.902Z,1.83
2023-04-01T19:50:21.478Z,2.97
2023-04-01T19:55:28.951Z,3.00
2023-04-01T20:00:37.343Z,2.07
2023-04-01T20:05:51.454Z,2.67
2023-04-01T20:10:53.218Z,2.55
2023-04-01T20:16:11.698Z,1.60
2023-04-01T20:21:15.920Z,2.20
2023-04-01T20:26:21.876Z,1.92
2023-04-01T20:31:27.237Z,2.40
2023-04-01T20:36:35.781Z,2.03
2023-04-01T20:41:46.438Z,2.03
2023-04-01T20:46:53.735Z,7.47
2023-04-01T20:52:00.895Z,2.00
2023-04-01T20:57:21.133Z,3.23
2023-04-01T21:02:42.852Z,2.30
2023-04-01T21:07:50.788Z,1.40
2023-04-01T21:12:57.495Z,1.80
2023-04-01T21:18:17.977Z,2.37
2023-04-01T21:23:38.211Z,1.70
2023-04-01T21:28:45.563Z,2.97
2023-04-01T21:34:11.503Z,2.87
2023-04-01T21:39:31.824Z,1.90
2023-04-01T21:44:33.173Z,1.40
2023-04-01T21:49:53.261Z,1.43
2023-04-01T21:55:13.185Z,1.50
2023-04-01T22:00:21.228Z,1.40
2023-04-01T22:05:29.599Z,1.50
2023-04-01T22:10:46.973Z,1.43
2023-04-01T22:16:07.056Z,1.57
2023-04-01T22:21:22.168Z,1.30
2023-04-01T22:26:43.313Z,1.60
2023-04-01T22:32:11.307Z,1.00
2023-04-01T22:37:15.799Z,2.53
2023-04-01T22:42:30.293Z,0.90
2023-04-01T22:52:41.056Z,1.77
2023-04-01T22:57:53.300Z,1.30
2023-04-01T23:03:06.979Z,2.17
2023-04-01T23:08:27.026Z,1.25
2023-04-01T23:13:35.350Z,1.40
2023-04-01T23:18:37.183Z,1.33
2023-04-01T23:24:01.794Z,1.13
2023-04-01T23:29:03.999Z,1.77
2023-04-01T23:34:14.589Z,1.57
2023-04-01T23:39:24.627Z,1.20
2023-04-01T23:44:26.923Z,1.10
2023-04-01T23:49:35.047Z,2.07
2023-04-01T23:54:44.597Z,1.70
2023-04-01T23:59:59.568Z,1.80
